Terminal Aerodrome Forecast
Issued by NWS

Home | Current Version | Previous Version | Text Only | Print | Product List | Glossary On
Versions: 1 2 3 4 5 6 7 8 9 10 11 12 13 14 15 16 17 18
000
FTUS44 KOHX 280500
TAFCKV
TAF
KCKV 280536Z 2806/2906 32010KT P6SM SKC
     FM281400 33011G17KT P6SM FEW040=

USA.gov is the U.S. government's official web portal to all federal, state and local government web resources and services.